Time;durP1;ratioP1;P1;durP2;ratioP2;P2;SDS_P1;SDS_P2;PMS_P1;PMS_P2;Temp;Humidity;BMP_temperature;BMP_pressure;BME280_temperature;BME280_humidity;BME280_pressure;Samples;Min_cycle;Max_cycle;Signal;HPM_P1;HPM_P2
2021/12/05 00:23:08;;;;;;;12.85;9.23;;;7.20;70.90;;;;;;5062461;28;20044;-77
2021/12/05 00:25:36;;;;;;;14.63;9.55;;;7.20;70.90;;;;;;5062231;28;20025;-78
2021/12/05 00:39:23;;;;;;;16.38;10.27;;;7.20;70.80;;;;;;5062837;28;20071;-78
2021/12/05 00:44:57;;;;;;;13.45;9.68;;;7.20;70.80;;;;;;5063326;28;20033;-79
2021/12/05 00:47:30;;;;;;;12.98;9.13;;;7.20;70.80;;;;;;5067322;28;20037;-78
2021/12/05 00:50:20;;;;;;;14.73;9.52;;;7.20;70.80;;;;;;5065630;28;20032;-78
2021/12/05 00:55:50;;;;;;;15.90;9.30;;;7.20;70.80;;;;;;5055531;28;20059;-79
2021/12/05 01:14:37;;;;;;;11.57;8.52;;;7.20;70.70;;;;;;5062063;28;20039;-79
2021/12/05 01:17:03;;;;;;;13.23;9.73;;;7.20;70.70;;;;;;5061472;28;20032;-78
2021/12/05 01:19:31;;;;;;;12.82;8.80;;;7.20;70.70;;;;;;5064649;28;20104;-79
2021/12/05 01:22:04;;;;;;;14.02;9.65;;;7.10;70.60;;;;;;5046653;28;20439;-78
2021/12/05 01:25:37;;;;;;;12.30;8.88;;;7.20;70.70;;;;;;5043677;28;20033;-80
2021/12/05 01:30:07;;;;;;;13.20;8.40;;;7.10;70.60;;;;;;5067505;28;20043;-80
2021/12/05 01:32:55;;;;;;;13.07;9.10;;;7.10;70.60;;;;;;5053083;28;20055;-79
2021/12/05 02:35:32;;;;;;;14.05;8.90;;;7.10;70.40;;;;;;5067750;28;20028;-79
2021/12/05 02:42:55;;;;;;;13.60;9.02;;;7.10;70.40;;;;;;5067683;28;20044;-79
2021/12/05 02:45:21;;;;;;;13.45;9.20;;;7.10;70.40;;;;;;5065384;28;20029;-79
2021/12/05 02:47:50;;;;;;;14.00;9.55;;;7.10;70.40;;;;;;5064675;28;20078;-80
2021/12/05 02:50:18;;;;;;;14.90;9.88;;;7.10;70.40;;;;;;5064817;28;20055;-79
2021/12/05 02:52:44;;;;;;;14.38;9.48;;;7.10;70.40;;;;;;5067964;28;20036;-79
2021/12/05 02:55:16;;;;;;;13.30;9.93;;;7.10;70.40;;;;;;5066332;28;20029;-79
2021/12/05 02:58:03;;;;;;;14.77;9.70;;;7.10;70.40;;;;;;5064063;28;20536;-80
2021/12/05 03:00:45;;;;;;;14.00;9.63;;;7.10;70.40;;;;;;5050443;28;20429;-80
2021/12/05 03:03:19;;;;;;;14.50;10.48;;;7.10;70.30;;;;;;5048333;28;20044;-79
2021/12/05 03:05:55;;;;;;;14.40;10.07;;;7.10;70.40;;;;;;5064043;28;20060;-79
2021/12/05 03:08:21;;;;;;;14.23;9.93;;;7.10;70.30;;;;;;5066348;28;20045;-79
2021/12/05 03:10:49;;;;;;;14.88;10.27;;;7.10;70.30;;;;;;5052274;28;20375;-80
2021/12/05 03:13:15;;;;;;;14.43;10.18;;;7.10;70.40;;;;;;5065296;28;20041;-79
2021/12/05 03:15:40;;;;;;;14.95;10.02;;;7.10;70.30;;;;;;5049435;28;20028;-79
2021/12/05 03:18:06;;;;;;;16.00;10.35;;;7.10;70.30;;;;;;5066704;28;20395;-79
2021/12/05 03:20:32;;;;;;;15.68;9.73;;;7.10;70.30;;;;;;5073969;28;20028;-79
2021/12/05 03:22:57;;;;;;;15.27;9.55;;;7.10;70.30;;;;;;5047601;28;20127;-79
2021/12/05 03:25:24;;;;;;;15.23;9.68;;;7.10;70.30;;;;;;5048812;28;20067;-80
2021/12/05 03:27:50;;;;;;;15.95;9.57;;;7.10;70.30;;;;;;5051782;28;20020;-78
2021/12/05 03:30:22;;;;;;;15.32;9.65;;;7.10;70.30;;;;;;5063774;28;20028;-79
2021/12/05 03:32:50;;;;;;;13.82;9.32;;;7.00;70.30;;;;;;5031384;28;20517;-80
2021/12/05 03:35:18;;;;;;;12.93;8.98;;;7.00;70.30;;;;;;5063690;28;20060;-79
2021/12/05 03:37:46;;;;;;;14.55;9.57;;;7.00;70.30;;;;;;5051568;28;20029;-80
2021/12/05 03:40:12;;;;;;;14.98;9.63;;;7.00;70.30;;;;;;5073494;28;20492;-79
2021/12/05 03:42:38;;;;;;;16.50;10.25;;;7.10;70.30;;;;;;5063486;28;20045;-79
2021/12/05 03:45:09;;;;;;;15.57;10.13;;;7.00;70.20;;;;;;5045479;28;20468;-79
2021/12/05 03:47:36;;;;;;;15.32;9.73;;;7.00;70.20;;;;;;5063204;28;20104;-78
2021/12/05 03:50:05;;;;;;;14.93;9.95;;;7.00;70.20;;;;;;5065678;28;20021;-80
2021/12/05 03:52:32;;;;;;;14.88;9.75;;;7.00;70.20;;;;;;5063458;28;20036;-80
2021/12/05 03:54:57;;;;;;;14.95;9.80;;;7.00;70.20;;;;;;5044828;28;20044;-79
2021/12/05 03:57:24;;;;;;;15.35;9.98;;;7.00;70.20;;;;;;5065321;28;20025;-79
2021/12/05 03:59:49;;;;;;;16.67;9.85;;;7.00;70.20;;;;;;5066541;28;20103;-79
2021/12/05 04:02:15;;;;;;;14.45;9.70;;;7.00;70.20;;;;;;5063970;28;20434;-79
2021/12/05 04:04:41;;;;;;;14.10;9.85;;;7.00;70.20;;;;;;5061404;28;20102;-79
2021/12/05 04:07:08;;;;;;;15.55;10.32;;;7.00;70.20;;;;;;5063501;28;20041;-80
2021/12/05 04:09:34;;;;;;;14.10;9.65;;;7.00;70.20;;;;;;5048551;28;20028;-79
2021/12/05 04:12:02;;;;;;;14.13;9.63;;;6.90;70.10;;;;;;5066035;28;20059;-79
2021/12/05 04:14:37;;;;;;;15.77;9.85;;;6.90;70.10;;;;;;5065046;28;20032;-79
2021/12/05 04:17:04;;;;;;;15.13;9.52;;;6.90;70.20;;;;;;5065381;28;20033;-78
2021/12/05 04:19:30;;;;;;;15.68;9.90;;;7.00;70.20;;;;;;5044709;28;20060;-80
2021/12/05 04:21:56;;;;;;;17.02;10.38;;;7.00;70.20;;;;;;5062526;28;20472;-79
2021/12/05 04:24:22;;;;;;;15.23;9.93;;;7.00;70.10;;;;;;5065120;28;20025;-79
2021/12/05 04:26:49;;;;;;;15.32;9.98;;;7.00;70.20;;;;;;5064032;28;20032;-79
2021/12/05 04:29:15;;;;;;;14.65;10.20;;;7.00;70.80;;;;;;5065191;28;20379;-78
2021/12/05 04:31:41;;;;;;;16.05;9.82;;;7.00;70.10;;;;;;5061434;28;20036;-80
2021/12/05 04:34:07;;;;;;;15.90;9.90;;;6.90;70.10;;;;;;5062656;28;20036;-79
2021/12/05 04:36:33;;;;;;;13.80;9.68;;;7.00;70.10;;;;;;5069452;28;20025;-79
2021/12/05 04:38:59;;;;;;;14.85;9.65;;;7.00;70.10;;;;;;5064081;28;20437;-80
2021/12/05 04:41:25;;;;;;;13.90;9.50;;;7.00;70.10;;;;;;5064874;28;20099;-77
2021/12/05 04:43:52;;;;;;;17.20;9.43;;;7.00;70.10;;;;;;5065031;28;20112;-79
2021/12/05 04:46:23;;;;;;;16.05;10.35;;;7.00;70.10;;;;;;5044730;28;20032;-79
2021/12/05 04:48:51;;;;;;;14.30;8.82;;;7.00;70.10;;;;;;5062557;28;20104;-79
2021/12/05 04:51:24;;;;;;;14.98;9.10;;;7.00;70.10;;;;;;5063468;28;20025;-79
2021/12/05 04:53:50;;;;;;;14.18;9.50;;;7.00;70.10;;;;;;5055881;28;20032;-79
2021/12/05 04:56:16;;;;;;;12.93;8.88;;;7.00;70.00;;;;;;5062735;28;20165;-78
2021/12/05 04:58:43;;;;;;;13.45;9.05;;;7.00;70.10;;;;;;5045652;28;20036;-79
2021/12/05 05:01:08;;;;;;;14.15;9.43;;;7.00;70.10;;;;;;5065033;28;20024;-79
2021/12/05 05:03:35;;;;;;;12.75;8.55;;;7.00;70.00;;;;;;5061639;28;20379;-79
2021/12/05 05:06:14;;;;;;;15.02;9.32;;;7.00;70.00;;;;;;5050169;28;20024;-78
2021/12/05 05:08:41;;;;;;;13.68;9.18;;;7.00;70.00;;;;;;5044066;28;20064;-78
2021/12/05 05:11:11;;;;;;;14.48;9.23;;;7.00;70.00;;;;;;5061644;28;20388;-78
2021/12/05 05:13:37;;;;;;;13.70;9.02;;;7.00;70.00;;;;;;5047574;28;20024;-79
2021/12/05 05:16:04;;;;;;;14.55;8.82;;;7.00;70.00;;;;;;5063435;28;20032;-78
2021/12/05 05:18:40;;;;;;;12.43;8.25;;;7.00;70.00;;;;;;5058223;28;20048;-77
2021/12/05 05:21:45;;;;;;;12.57;8.65;;;7.00;70.00;;;;;;5064123;28;20430;-78
2021/12/05 05:50:35;;;;;;;12.30;8.60;;;7.00;69.90;;;;;;5062510;28;20053;-78
2021/12/05 05:53:01;;;;;;;12.23;8.10;;;7.00;69.90;;;;;;5058282;28;20429;-77
2021/12/05 05:55:26;;;;;;;13.02;8.63;;;7.00;69.90;;;;;;5069042;28;20021;-80
2021/12/05 06:00:36;;;;;;;11.15;7.68;;;7.00;69.90;;;;;;5065019;28;20112;-78
2021/12/05 06:03:21;;;;;;;13.33;8.73;;;7.00;69.90;;;;;;5055483;28;20037;-78
2021/12/05 06:05:55;;;;;;;11.70;8.02;;;7.00;69.90;;;;;;5047783;28;20064;-78
2021/12/05 06:08:24;;;;;;;;;;;7.10;69.90;;;;;;5061410;28;20047;-80
2021/12/05 06:10:57;;;;;;;13.25;8.63;;;7.00;69.70;;;;;;5050471;28;19959;-79
2021/12/05 06:13:23;;;;;;;12.50;8.18;;;7.10;69.80;;;;;;5070830;28;20027;-80
2021/12/05 06:15:50;;;;;;;12.80;8.25;;;7.10;69.90;;;;;;5053703;28;20441;-80
2021/12/05 06:18:16;;;;;;;11.25;7.75;;;7.10;69.80;;;;;;5067343;28;20131;-81
2021/12/05 06:20:42;;;;;;;13.60;8.25;;;7.10;69.90;;;;;;5067640;28;20107;-81
2021/12/05 06:23:08;;;;;;;15.18;8.50;;;7.10;69.80;;;;;;5056755;28;20131;-78
2021/12/05 06:25:37;;;;;;;12.52;7.93;;;7.10;69.80;;;;;;5051809;28;20024;-79
2021/12/05 06:28:09;;;;;;;13.80;8.60;;;7.10;69.80;;;;;;5068914;28;20028;-79
2021/12/05 06:46:43;;;;;;;12.02;8.15;;;7.20;69.70;;;;;;5060290;28;20024;-77
2021/12/05 06:49:09;;;;;;;12.65;8.70;;;7.20;69.70;;;;;;5065868;28;20025;-78
2021/12/05 06:51:35;;;;;;;13.88;8.50;;;7.20;69.70;;;;;;5067540;28;20476;-79
2021/12/05 06:54:01;;;;;;;12.43;8.27;;;7.20;69.70;;;;;;5065844;28;20474;-79
2021/12/05 06:56:26;;;;;;;13.63;8.55;;;7.20;69.70;;;;;;5072010;28;20432;-78
2021/12/05 06:58:53;;;;;;;13.45;8.05;;;7.20;69.70;;;;;;5085505;28;20114;-78
2021/12/05 07:01:19;;;;;;;11.88;7.38;;;7.20;69.70;;;;;;5046947;28;20039;-80
2021/12/05 07:03:48;;;;;;;12.82;7.90;;;7.20;69.60;;;;;;5073161;28;20108;-78
2021/12/05 07:06:27;;;;;;;12.30;7.90;;;7.20;69.70;;;;;;5066027;28;20029;-77
2021/12/05 07:08:58;;;;;;;12.27;8.23;;;7.20;69.60;;;;;;5063509;28;20020;-80
2021/12/05 07:11:34;;;;;;;12.50;7.90;;;7.20;69.60;;;;;;5050292;28;20028;-80
2021/12/05 07:40:44;;;;;;;11.82;7.28;;;7.30;69.50;;;;;;5065723;28;20114;-80
2021/12/05 07:43:12;;;;;;;10.77;7.00;;;7.30;69.40;;;;;;5065327;28;20051;-88
2021/12/05 07:45:44;;;;;;;10.50;6.78;;;7.30;69.50;;;;;;5048009;28;20036;-82
2021/12/05 07:48:15;;;;;;;12.13;7.55;;;7.30;69.50;;;;;;5045238;28;20092;-76
2021/12/05 07:51:04;;;;;;;11.45;7.50;;;7.30;69.50;;;;;;5050650;28;20036;-76
2021/12/05 07:53:53;;;;;;;9.98;7.15;;;7.30;69.40;;;;;;5066085;28;20035;-76
2021/12/05 07:56:45;;;;;;;11.30;7.05;;;7.30;69.40;;;;;;5061397;28;20027;-74
2021/12/05 08:15:43;;;;;;;9.23;6.30;;;7.40;69.30;;;;;;5095400;28;20046;-74
2021/12/05 08:18:09;;;;;;;11.07;7.15;;;7.40;69.30;;;;;;5094143;28;20280;-72
2021/12/05 08:20:38;;;;;;;10.88;6.88;;;7.40;69.30;;;;;;5077000;28;20118;-74
2021/12/05 08:23:05;;;;;;;10.18;7.03;;;7.40;69.30;;;;;;5094942;28;20032;-73
2021/12/05 08:25:35;;;;;;;9.73;6.65;;;7.40;69.30;;;;;;5077107;28;20115;-72
2021/12/05 08:28:36;;;;;;;10.32;6.68;;;7.40;69.20;;;;;;5094931;28;20024;-73
2021/12/05 08:31:07;;;;;;;9.55;6.35;;;7.40;69.30;;;;;;5092900;28;20024;-71
2021/12/05 08:34:06;;;;;;;10.50;6.80;;;7.40;69.20;;;;;;5095060;28;20082;-72
2021/12/05 08:36:45;;;;;;;11.05;6.57;;;7.50;69.20;;;;;;5094103;28;20028;-73
2021/12/05 08:42:19;;;;;;;11.63;6.97;;;7.50;69.20;;;;;;5083804;28;20047;-74
2021/12/05 09:23:54;;;;;;;10.90;6.65;;;7.50;69.00;;;;;;5073840;28;20044;-74
2021/12/05 09:40:13;;;;;;;8.88;6.15;;;7.40;69.10;;;;;;5065662;28;20039;-72
2021/12/05 09:51:31;;;;;;;9.30;6.47;;;7.40;69.00;;;;;;5068918;28;20046;-74
2021/12/05 10:02:34;;;;;;;8.43;5.77;;;7.40;69.10;;;;;;5065066;28;20102;-74
2021/12/05 10:10:40;;;;;;;8.38;6.03;;;7.40;69.00;;;;;;5070608;28;20037;-73
2021/12/05 10:38:05;;;;;;;10.68;6.65;;;7.60;69.00;;;;;;5058760;28;20063;-76
2021/12/05 10:40:41;;;;;;;10.60;6.72;;;7.60;69.00;;;;;;5046080;28;20029;-79
2021/12/05 10:43:13;;;;;;;12.73;7.10;;;7.60;68.90;;;;;;5021711;28;20103;-80
2021/12/05 10:45:50;;;;;;;12.63;6.93;;;7.70;68.90;;;;;;5037834;28;20059;-78
2021/12/05 10:48:32;;;;;;;9.98;7.03;;;7.70;68.80;;;;;;5055529;28;20029;-75
2021/12/05 10:51:03;;;;;;;12.77;7.25;;;7.80;68.80;;;;;;5048214;28;20429;-73
2021/12/05 10:53:28;;;;;;;9.82;6.57;;;7.80;68.80;;;;;;5057360;28;20052;-74
2021/12/05 10:56:06;;;;;;;11.60;7.00;;;7.80;68.70;;;;;;5057000;28;20059;-74
2021/12/05 10:58:36;;;;;;;10.68;6.78;;;7.80;68.60;;;;;;5057481;28;20052;-73
2021/12/05 11:01:24;;;;;;;11.13;7.15;;;7.80;68.60;;;;;;5062220;28;20025;-73
2021/12/05 11:03:54;;;;;;;12.05;7.60;;;7.80;68.50;;;;;;5069671;28;20033;-72
2021/12/05 11:06:23;;;;;;;12.55;7.30;;;7.80;68.50;;;;;;5055828;28;20070;-74
2021/12/05 11:08:57;;;;;;;11.82;7.32;;;7.90;68.50;;;;;;5055511;28;20543;-72
2021/12/05 11:11:23;;;;;;;11.95;7.60;;;7.80;68.50;;;;;;5056279;28;20062;-74
2021/12/05 11:13:50;;;;;;;11.52;7.00;;;7.80;68.50;;;;;;5056693;28;20040;-73
2021/12/05 11:16:38;;;;;;;12.93;7.55;;;7.80;68.40;;;;;;5056644;28;20032;-73
2021/12/05 11:19:17;;;;;;;12.07;7.25;;;7.80;68.40;;;;;;5056265;28;20049;-73
2021/12/05 11:21:48;;;;;;;11.65;7.20;;;7.80;68.40;;;;;;5074623;28;20482;-73
2021/12/05 11:24:23;;;;;;;10.38;7.18;;;7.80;68.50;;;;;;5057110;28;20021;-73
2021/12/05 11:27:04;;;;;;;10.05;6.80;;;7.70;68.40;;;;;;5074891;28;20028;-73
2021/12/05 11:29:45;;;;;;;10.88;7.07;;;7.80;68.40;;;;;;5074478;28;20054;-73
2021/12/05 11:32:19;;;;;;;11.95;7.50;;;7.80;68.50;;;;;;5074538;28;20036;-72
2021/12/05 11:34:46;;;;;;;11.48;6.90;;;7.70;68.50;;;;;;5074865;28;20043;-72
2021/12/05 11:37:12;;;;;;;10.13;6.80;;;7.70;68.50;;;;;;5075016;28;20032;-73
2021/12/05 11:39:38;;;;;;;11.43;7.30;;;7.70;68.50;;;;;;5074567;28;20035;-72
2021/12/05 11:42:12;;;;;;;13.45;7.60;;;7.70;68.50;;;;;;5056318;28;20029;-72
2021/12/05 11:44:40;;;;;;;9.90;7.20;;;7.70;68.50;;;;;;5056415;28;20028;-73
2021/12/05 11:47:15;;;;;;;11.00;6.65;;;7.70;68.50;;;;;;5074286;28;20020;-72
2021/12/05 11:49:41;;;;;;;11.02;6.95;;;7.70;68.50;;;;;;5039591;28;20116;-73
2021/12/05 11:52:08;;;;;;;11.13;7.18;;;7.70;68.50;;;;;;5055059;28;20063;-73
2021/12/05 11:54:46;;;;;;;10.10;6.93;;;7.70;68.50;;;;;;5072283;28;20115;-73
2021/12/05 11:57:20;;;;;;;10.80;6.88;;;7.70;68.40;;;;;;5067712;28;20024;-73
2021/12/05 11:59:55;;;;;;;10.80;7.55;;;7.70;68.50;;;;;;5039421;28;20025;-73
2021/12/05 12:02:33;;;;;;;8.73;6.28;;;7.70;68.50;;;;;;5052529;28;20029;-73
2021/12/05 12:05:05;;;;;;;9.63;6.45;;;7.60;68.50;;;;;;5054191;28;20046;-72
